createdAt,value
2022-08-26T00:01:19.458Z,24.47
2022-08-26T00:03:55.988Z,24.66
2022-08-26T00:06:22.749Z,25.39
2022-08-26T00:08:49.368Z,25.24
2022-08-26T00:11:16.099Z,25.39
2022-08-26T00:13:55.920Z,25.50
2022-08-26T00:16:28.218Z,25.06
2022-08-26T00:18:57.476Z,25.56
2022-08-26T00:21:24.837Z,25.30
2022-08-26T00:23:51.585Z,24.58
2022-08-26T00:26:18.895Z,24.27
2022-08-26T00:28:47.939Z,24.27
2022-08-26T00:31:14.609Z,24.18
2022-08-26T00:33:41.897Z,23.92
2022-08-26T00:36:14.435Z,24.02
2022-08-26T00:38:47.743Z,24.15
2022-08-26T00:41:14.980Z,23.82
2022-08-26T00:43:47.287Z,24.50
2022-08-26T00:46:25.228Z,24.64
2022-08-26T00:48:59.504Z,24.99
2022-08-26T00:51:29.772Z,25.14
2022-08-26T00:54:10.690Z,24.96
2022-08-26T00:56:57.795Z,24.77
2022-08-26T00:59:32.657Z,24.77
2022-08-26T01:02:01.004Z,24.50
2022-08-26T01:04:32.038Z,23.84
2022-08-26T01:06:58.989Z,24.21
2022-08-26T01:09:26.526Z,24.04
2022-08-26T01:11:57.365Z,24.31
2022-08-26T01:14:29.436Z,24.30
2022-08-26T01:16:56.205Z,24.02
2022-08-26T01:19:29.679Z,24.62
2022-08-26T01:22:07.918Z,24.35
2022-08-26T01:24:37.900Z,24.74
2022-08-26T01:27:09.342Z,24.92
2022-08-26T01:29:40.875Z,24.93
2022-08-26T01:32:11.283Z,23.97
2022-08-26T01:34:40.361Z,24.28
2022-08-26T01:37:15.933Z,23.90
2022-08-26T01:39:46.810Z,24.30
2022-08-26T01:42:16.708Z,24.51
2022-08-26T01:45:05.480Z,24.57
2022-08-26T01:47:36.821Z,24.65
2022-08-26T01:50:15.793Z,24.02
2022-08-26T01:52:56.859Z,23.26
2022-08-26T01:55:32.255Z,23.81
2022-08-26T01:58:06.854Z,24.04
2022-08-26T02:00:35.213Z,24.34
2022-08-26T02:03:04.457Z,24.23
2022-08-26T02:05:31.696Z,23.58
2022-08-26T02:07:59.120Z,23.97
2022-08-26T02:10:26.622Z,23.50
2022-08-26T02:12:53.320Z,23.33
2022-08-26T02:15:22.260Z,23.32
2022-08-26T02:17:49.894Z,23.52
2022-08-26T02:20:20.870Z,22.84
2022-08-26T02:22:50.052Z,22.28
2022-08-26T02:25:31.816Z,22.35
2022-08-26T02:27:59.835Z,22.40
2022-08-26T02:30:31.608Z,22.49
2022-08-26T02:33:02.710Z,22.35
2022-08-26T02:35:31.946Z,22.65
2022-08-26T02:37:59.716Z,23.03
2022-08-26T02:40:32.022Z,23.02
2022-08-26T02:42:58.760Z,22.54
2022-08-26T02:45:29.700Z,22.58
2022-08-26T02:47:57.459Z,22.68
2022-08-26T02:50:25.815Z,22.96
2022-08-26T02:52:53.262Z,22.77
2022-08-26T02:55:20.539Z,23.78
2022-08-26T02:57:47.312Z,24.29
2022-08-26T03:00:15.082Z,24.44
2022-08-26T03:02:42.001Z,23.89
2022-08-26T03:05:09.332Z,23.44
2022-08-26T03:07:36.131Z,23.48
2022-08-26T03:10:08.284Z,23.28
2022-08-26T03:12:35.720Z,23.39
2022-08-26T03:15:02.385Z,23.42
2022-08-26T03:17:43.797Z,23.28
2022-08-26T03:20:11.029Z,23.47
2022-08-26T03:22:40.496Z,23.33
2022-08-26T03:25:10.644Z,22.26
2022-08-26T03:27:37.618Z,21.68
2022-08-26T03:30:05.595Z,21.66
2022-08-26T03:32:32.225Z,21.57
2022-08-26T03:34:59.220Z,21.55
2022-08-26T03:37:26.640Z,21.64
2022-08-26T03:39:54.079Z,22.41
2022-08-26T03:42:21.458Z,22.60
2022-08-26T03:44:48.734Z,22.71
2022-08-26T03:47:15.451Z,22.61
2022-08-26T03:49:42.865Z,23.33
2022-08-26T03:52:09.811Z,23.19
2022-08-26T03:54:36.765Z,23.10
2022-08-26T03:57:03.929Z,23.38
2022-08-26T03:59:32.022Z,23.64
2022-08-26T04:02:01.474Z,23.68
2022-08-26T04:04:29.007Z,23.70
2022-08-26T04:06:59.514Z,23.71
2022-08-26T04:09:27.222Z,23.81
2022-08-26T04:11:56.011Z,23.77
2022-08-26T04:14:26.318Z,23.60
2022-08-26T04:16:55.247Z,23.65
2022-08-26T04:19:24.412Z,23.74
2022-08-26T04:21:54.768Z,23.61
2022-08-26T04:24:26.417Z,23.42
2022-08-26T04:26:54.696Z,22.91
2022-08-26T04:29:26.638Z,22.95
2022-08-26T04:31:55.622Z,22.83
2022-08-26T04:34:28.668Z,23.05
2022-08-26T04:36:56.384Z,22.72
2022-08-26T04:39:23.691Z,22.15
2022-08-26T04:41:52.229Z,22.80
2022-08-26T04:44:22.091Z,23.07
2022-08-26T04:46:48.799Z,23.41
2022-08-26T04:49:15.698Z,23.57
2022-08-26T04:51:42.358Z,22.78
2022-08-26T04:54:10.701Z,22.99
2022-08-26T04:56:40.901Z,22.37
2022-08-26T04:59:16.723Z,22.79
2022-08-26T05:01:51.574Z,23.12
2022-08-26T05:04:20.684Z,22.22
2022-08-26T05:06:48.733Z,22.22
2022-08-26T05:09:16.704Z,22.16
2022-08-26T05:11:43.334Z,22.13
2022-08-26T05:14:10.121Z,22.70
2022-08-26T05:16:37.628Z,22.61
2022-08-26T05:19:07.583Z,22.29
2022-08-26T05:21:35.954Z,22.19
2022-08-26T05:24:02.965Z,22.15
2022-08-26T05:26:31.496Z,22.46
2022-08-26T05:28:58.334Z,22.67
2022-08-26T05:31:29.947Z,23.12
2022-08-26T05:33:57.346Z,22.70
2022-08-26T05:36:27.676Z,22.68
2022-08-26T05:38:55.464Z,22.60
2022-08-26T05:41:22.019Z,22.60
2022-08-26T05:43:48.728Z,22.96
2022-08-26T05:46:15.576Z,23.39
2022-08-26T05:48:44.331Z,24.14
2022-08-26T05:51:12.189Z,24.69
2022-08-26T05:53:43.739Z,24.98
2022-08-26T05:56:12.299Z,25.27
2022-08-26T05:58:40.580Z,25.15
2022-08-26T06:01:07.207Z,25.11
2022-08-26T06:03:37.292Z,25.08
2022-08-26T06:06:06.590Z,25.10
2022-08-26T06:08:33.773Z,25.14
2022-08-26T06:11:03.632Z,25.09
2022-08-26T06:13:34.695Z,25.43
2022-08-26T06:16:05.852Z,25.59
2022-08-26T06:18:36.356Z,25.71
2022-08-26T06:21:35.407Z,25.86
2022-08-26T06:24:08.948Z,25.93
2022-08-26T06:26:36.721Z,25.93
2022-08-26T06:29:05.048Z,25.92
2022-08-26T06:31:33.469Z,25.95
2022-08-26T06:34:01.316Z,26.05
2022-08-26T06:36:30.199Z,25.65
2022-08-26T06:39:01.599Z,25.51
2022-08-26T06:41:28.616Z,25.69
2022-08-26T06:43:56.628Z,25.72
2022-08-26T06:46:23.381Z,25.61
2022-08-26T06:48:54.001Z,25.71
2022-08-26T06:51:28.255Z,25.78
2022-08-26T06:53:57.598Z,25.83
2022-08-26T06:56:33.023Z,25.80
2022-08-26T06:59:00.198Z,25.87
2022-08-26T07:01:32.691Z,25.73
2022-08-26T07:04:01.527Z,25.46
2022-08-26T07:06:28.660Z,25.36
2022-08-26T07:09:01.237Z,25.27
2022-08-26T07:11:31.656Z,25.20
2022-08-26T07:13:58.665Z,25.42
2022-08-26T07:16:26.461Z,25.74
2022-08-26T07:18:54.883Z,25.97
2022-08-26T07:21:23.062Z,26.05
2022-08-26T07:23:51.640Z,25.73
2022-08-26T07:26:23.169Z,26.05
2022-08-26T07:28:53.761Z,26.43
2022-08-26T07:31:23.776Z,26.32
2022-08-26T07:33:51.197Z,26.47
2022-08-26T07:36:20.469Z,26.15
2022-08-26T07:38:47.383Z,26.24
2022-08-26T07:41:17.460Z,25.98
2022-08-26T07:43:44.631Z,25.98
2022-08-26T07:46:16.379Z,26.38
2022-08-26T07:48:46.075Z,26.80
2022-08-26T07:51:15.124Z,26.56
2022-08-26T07:53:47.929Z,26.41
2022-08-26T07:56:18.905Z,26.79
2022-08-26T07:58:50.882Z,26.50
2022-08-26T08:01:24.523Z,26.74
2022-08-26T08:03:54.220Z,26.95
2022-08-26T08:06:27.161Z,26.96
2022-08-26T08:08:54.505Z,26.95
2022-08-26T08:11:22.212Z,26.66
2022-08-26T08:13:55.991Z,26.82
2022-08-26T08:16:28.423Z,26.89
2022-08-26T08:18:59.209Z,27.25
2022-08-26T08:21:29.078Z,27.20
2022-08-26T08:23:57.280Z,28.31
2022-08-26T08:26:25.538Z,28.45
2022-08-26T08:28:57.190Z,28.61
2022-08-26T08:31:56.018Z,28.72
2022-08-26T08:34:18.381Z,28.94
2022-08-26T08:36:45.898Z,29.30
2022-08-26T08:39:12.812Z,28.68
2022-08-26T08:41:57.969Z,28.70
2022-08-26T08:47:12.729Z,28.81
2022-08-26T08:49:39.529Z,28.37
2022-08-26T08:52:27.677Z,27.75
2022-08-26T08:54:55.830Z,27.85
2022-08-26T08:57:39.488Z,26.85
2022-08-26T09:00:16.238Z,27.10
2022-08-26T09:02:56.010Z,27.16
2022-08-26T09:05:30.973Z,27.06
2022-08-26T09:08:04.688Z,27.12
2022-08-26T09:10:40.438Z,26.72
2022-08-26T09:13:13.806Z,26.81
2022-08-26T09:15:58.805Z,26.54
2022-08-26T09:18:51.509Z,26.37
2022-08-26T09:21:20.410Z,26.36
2022-08-26T09:23:50.527Z,26.11
2022-08-26T09:26:28.746Z,26.62
2022-08-26T09:29:04.244Z,25.86
2022-08-26T09:31:34.166Z,26.16
2022-08-26T09:34:20.596Z,25.89
2022-08-26T09:36:58.547Z,25.46
2022-08-26T09:39:25.191Z,25.40
2022-08-26T09:42:21.146Z,25.80
2022-08-26T09:44:56.899Z,25.43
2022-08-26T09:47:39.096Z,25.30
2022-08-26T09:50:23.504Z,24.93
2022-08-26T09:53:20.997Z,24.69
2022-08-26T09:55:51.770Z,24.94
2022-08-26T09:58:30.744Z,25.25
2022-08-26T10:01:02.554Z,25.11
2022-08-26T10:03:33.912Z,25.27
2022-08-26T10:06:06.346Z,25.02
2022-08-26T10:08:40.994Z,24.87
2022-08-26T10:11:20.967Z,25.15
2022-08-26T10:14:00.551Z,25.00
2022-08-26T10:17:01.767Z,25.14
2022-08-26T10:19:41.720Z,25.26
2022-08-26T10:22:40.575Z,25.39
2022-08-26T10:25:15.227Z,25.10
2022-08-26T10:27:49.513Z,25.35
2022-08-26T10:30:23.685Z,25.36
2022-08-26T10:32:52.013Z,25.63
2022-08-26T10:35:19.722Z,25.76
2022-08-26T10:37:56.339Z,25.49
2022-08-26T10:40:25.698Z,25.64
2022-08-26T10:42:58.283Z,25.54
2022-08-26T10:45:29.122Z,25.32
2022-08-26T10:48:05.115Z,25.10
2022-08-26T10:50:47.450Z,25.00
2022-08-26T10:53:17.913Z,24.95
2022-08-26T10:55:59.824Z,25.17
2022-08-26T10:58:54.825Z,25.02
2022-08-26T11:01:44.329Z,24.86
2022-08-26T11:04:35.281Z,25.25
2022-08-26T11:07:28.915Z,25.00
2022-08-26T11:10:04.829Z,25.11
2022-08-26T11:12:34.448Z,25.22
2022-08-26T11:15:30.963Z,25.46
2022-08-26T11:18:03.808Z,25.45
2022-08-26T11:20:35.236Z,25.58
2022-08-26T11:23:20.187Z,25.66
2022-08-26T11:25:57.004Z,25.73
2022-08-26T11:28:48.363Z,25.91
2022-08-26T11:31:37.911Z,25.95
2022-08-26T11:34:07.255Z,26.13
2022-08-26T11:36:40.118Z,26.57
2022-08-26T11:39:54.018Z,26.34
2022-08-26T11:42:44.861Z,26.48
2022-08-26T11:45:39.981Z,26.21
2022-08-26T11:48:18.552Z,26.25
2022-08-26T11:51:00.135Z,26.67
2022-08-26T11:53:29.877Z,26.19
2022-08-26T11:56:01.557Z,26.22
2022-08-26T11:58:29.510Z,26.11
2022-08-26T12:00:58.033Z,26.35
2022-08-26T12:03:45.676Z,26.48
2022-08-26T12:06:43.448Z,26.53
2022-08-26T12:09:22.222Z,27.23
2022-08-26T12:11:49.128Z,27.10
2022-08-26T12:14:23.527Z,27.60
2022-08-26T12:16:52.658Z,27.50
2022-08-26T12:19:29.049Z,27.81
2022-08-26T12:22:34.546Z,27.12
2022-08-26T12:25:11.478Z,27.13
2022-08-26T12:27:44.249Z,28.02
2022-08-26T12:30:14.050Z,27.59
2022-08-26T12:32:51.101Z,27.73
2022-08-26T12:35:24.414Z,28.23
2022-08-26T12:37:54.287Z,28.16
2022-08-26T12:40:45.412Z,28.06
2022-08-26T12:43:15.026Z,28.26
2022-08-26T12:45:54.591Z,28.24
2022-08-26T12:48:34.844Z,28.22
2022-08-26T12:51:03.616Z,28.50
2022-08-26T12:53:34.453Z,28.83
2022-08-26T12:56:37.193Z,29.51
2022-08-26T12:59:07.935Z,28.88
2022-08-26T13:01:44.152Z,28.95
2022-08-26T13:04:38.854Z,28.41
2022-08-26T13:07:24.066Z,28.40
2022-08-26T13:09:54.320Z,28.12
2022-08-26T13:12:31.667Z,27.86
2022-08-26T13:15:00.481Z,27.17
2022-08-26T13:17:28.979Z,27.23
2022-08-26T13:19:59.016Z,27.45
2022-08-26T13:22:29.534Z,27.08
2022-08-26T13:24:56.953Z,27.18
2022-08-26T13:27:26.030Z,27.39
2022-08-26T13:29:53.707Z,27.21
2022-08-26T13:32:21.690Z,26.98
2022-08-26T13:34:56.225Z,27.18
2022-08-26T13:37:34.555Z,27.18
2022-08-26T13:40:06.406Z,26.92
2022-08-26T13:42:33.388Z,27.07
2022-08-26T13:45:01.329Z,27.32
2022-08-26T13:47:28.004Z,27.46
2022-08-26T13:49:57.854Z,27.25
2022-08-26T13:52:30.609Z,27.41
2022-08-26T13:54:59.066Z,27.27
2022-08-26T13:57:26.231Z,27.46
2022-08-26T13:59:52.975Z,27.63
2022-08-26T14:02:20.165Z,27.53
2022-08-26T14:04:46.846Z,27.13
2022-08-26T14:07:13.706Z,27.25
2022-08-26T14:09:40.447Z,27.43
2022-08-26T14:12:07.388Z,27.36
2022-08-26T14:14:34.232Z,27.25
2022-08-26T14:17:01.561Z,27.55
2022-08-26T14:19:30.002Z,27.54
2022-08-26T14:21:57.265Z,27.48
2022-08-26T14:24:23.909Z,27.69
2022-08-26T14:26:50.549Z,27.33
2022-08-26T14:29:17.345Z,27.74
2022-08-26T14:31:44.339Z,27.62
2022-08-26T14:34:13.971Z,27.57
2022-08-26T14:36:40.634Z,27.29
2022-08-26T14:39:10.795Z,27.53
2022-08-26T14:41:45.474Z,27.67
2022-08-26T14:44:25.781Z,28.11
2022-08-26T14:46:54.355Z,27.89
2022-08-26T14:49:28.010Z,28.03
2022-08-26T14:51:55.058Z,28.03
2022-08-26T14:54:21.779Z,27.53
2022-08-26T14:57:00.006Z,27.56
2022-08-26T14:59:32.462Z,27.07
2022-08-26T15:01:59.519Z,27.21
2022-08-26T15:04:27.209Z,27.21
2022-08-26T15:06:56.302Z,27.44
2022-08-26T15:09:23.695Z,27.39
2022-08-26T15:11:51.533Z,27.26
2022-08-26T15:14:19.904Z,27.07
2022-08-26T15:16:49.094Z,27.08
2022-08-26T15:19:16.254Z,26.97
2022-08-26T15:21:43.005Z,27.14
2022-08-26T15:24:09.638Z,27.37
2022-08-26T15:26:36.262Z,26.93
2022-08-26T15:29:05.235Z,26.70
2022-08-26T15:31:33.521Z,26.63
2022-08-26T15:34:04.210Z,26.60
2022-08-26T15:36:31.974Z,26.82
2022-08-26T15:39:00.926Z,27.17
2022-08-26T15:41:28.583Z,27.33
2022-08-26T15:43:55.466Z,27.56
2022-08-26T15:46:22.299Z,27.49
2022-08-26T15:48:51.648Z,27.45
2022-08-26T15:51:25.050Z,27.62
2022-08-26T15:53:53.910Z,27.75
2022-08-26T15:56:22.955Z,28.28
2022-08-26T15:58:49.562Z,28.05
2022-08-26T16:01:16.406Z,28.26
2022-08-26T16:03:55.296Z,28.28
2022-08-26T16:06:25.448Z,27.99
2022-08-26T16:08:52.074Z,27.08
2022-08-26T16:11:18.735Z,27.02
2022-08-26T16:13:46.257Z,25.49
2022-08-26T16:16:12.932Z,24.47
2022-08-26T16:18:39.983Z,24.38
2022-08-26T16:21:13.141Z,23.74
2022-08-26T16:23:45.000Z,23.14
2022-08-26T16:26:18.688Z,23.21
2022-08-26T16:28:45.896Z,23.11
2022-08-26T16:31:13.248Z,22.88
2022-08-26T16:33:40.242Z,22.73
2022-08-26T16:36:09.045Z,22.72
2022-08-26T16:38:36.890Z,22.82
2022-08-26T16:41:05.102Z,23.11
2022-08-26T16:43:31.874Z,22.76
2022-08-26T16:45:58.614Z,22.84
2022-08-26T16:48:25.490Z,23.08
2022-08-26T16:50:52.255Z,22.93
2022-08-26T16:53:19.267Z,22.78
2022-08-26T16:55:48.371Z,22.90
2022-08-26T16:58:15.673Z,23.03
2022-08-26T17:00:42.533Z,23.02
2022-08-26T17:03:09.597Z,23.34
2022-08-26T17:05:36.494Z,23.52
2022-08-26T17:08:04.845Z,23.43
2022-08-26T17:10:32.760Z,23.50
2022-08-26T17:13:00.069Z,23.09
2022-08-26T17:15:26.962Z,23.77
2022-08-26T17:17:54.544Z,23.53
2022-08-26T17:20:23.577Z,23.17
2022-08-26T17:22:53.061Z,23.54
2022-08-26T17:25:29.779Z,24.32
2022-08-26T17:30:28.015Z,23.71
2022-08-26T17:32:58.031Z,23.74
2022-08-26T17:35:26.470Z,23.33
2022-08-26T17:37:53.570Z,22.72
2022-08-26T17:40:24.401Z,22.89
2022-08-26T17:42:51.777Z,23.32
2022-08-26T17:47:45.672Z,23.39
2022-08-26T17:50:16.264Z,23.76
2022-08-26T17:52:44.199Z,23.03
2022-08-26T17:55:14.257Z,22.97
2022-08-26T17:57:53.290Z,22.90
2022-08-26T18:00:22.758Z,22.52
2022-08-26T18:02:49.395Z,22.76
2022-08-26T18:05:16.608Z,22.29
2022-08-26T18:07:44.284Z,22.29
2022-08-26T18:10:14.533Z,22.30
2022-08-26T18:12:41.611Z,21.98
2022-08-26T18:15:10.990Z,22.04
2022-08-26T18:17:38.874Z,21.97
2022-08-26T18:20:08.462Z,22.31
2022-08-26T18:22:35.098Z,22.27
2022-08-26T18:25:01.793Z,22.06
2022-08-26T18:27:28.422Z,22.21
2022-08-26T18:29:55.087Z,22.22
2022-08-26T18:32:21.730Z,22.44
2022-08-26T18:34:48.339Z,22.65
2022-08-26T18:37:15.260Z,22.59
2022-08-26T18:39:41.915Z,22.28
2022-08-26T18:42:08.975Z,22.26
2022-08-26T18:44:36.249Z,22.14
2022-08-26T18:47:02.976Z,22.24
2022-08-26T18:49:29.740Z,22.78
2022-08-26T18:51:56.420Z,22.55
2022-08-26T18:54:23.071Z,22.42
2022-08-26T18:56:49.894Z,21.97
2022-08-26T18:59:16.505Z,21.81
2022-08-26T19:01:43.623Z,21.92
2022-08-26T19:04:12.865Z,22.01
2022-08-26T19:06:42.333Z,21.71
2022-08-26T19:09:11.881Z,21.63
2022-08-26T19:11:42.915Z,22.14
2022-08-26T19:14:15.968Z,22.24
2022-08-26T19:16:45.914Z,21.74
2022-08-26T19:19:14.209Z,21.88
2022-08-26T19:21:41.031Z,22.22
2022-08-26T19:24:11.262Z,22.11
2022-08-26T19:26:38.166Z,21.91
2022-08-26T19:29:08.374Z,21.71
2022-08-26T19:31:35.283Z,22.07
2022-08-26T19:34:02.030Z,22.13
2022-08-26T19:36:30.784Z,22.31
2022-08-26T19:38:58.237Z,22.22
2022-08-26T19:41:37.023Z,21.99
2022-08-26T19:44:14.458Z,22.28
2022-08-26T19:46:41.338Z,22.77
2022-08-26T19:49:10.698Z,22.67
2022-08-26T19:51:37.358Z,22.33
2022-08-26T19:54:04.588Z,22.77
2022-08-26T19:56:31.269Z,22.46
2022-08-26T19:58:57.924Z,22.38
2022-08-26T20:01:25.076Z,22.80
2022-08-26T20:03:51.794Z,22.26
2022-08-26T20:06:19.086Z,23.14
2022-08-26T20:08:46.083Z,23.38
2022-08-26T20:11:16.651Z,24.05
2022-08-26T20:13:45.932Z,24.29
2022-08-26T20:16:14.174Z,24.66
2022-08-26T20:18:42.174Z,24.49
2022-08-26T20:21:08.810Z,24.80
2022-08-26T20:23:35.690Z,24.78
2022-08-26T20:26:02.728Z,24.82
2022-08-26T20:28:29.824Z,24.96
2022-08-26T20:30:56.533Z,25.08
2022-08-26T20:33:23.300Z,25.10
2022-08-26T20:35:49.941Z,24.86
2022-08-26T20:38:20.939Z,24.76
2022-08-26T20:40:48.839Z,24.37
2022-08-26T20:43:15.471Z,24.66
2022-08-26T20:45:42.306Z,24.93
2022-08-26T20:48:12.314Z,24.82
2022-08-26T20:50:39.223Z,24.11
2022-08-26T20:53:08.529Z,24.54
2022-08-26T20:55:35.223Z,24.17
2022-08-26T20:58:01.851Z,23.96
2022-08-26T21:00:28.832Z,22.86
2022-08-26T21:02:55.538Z,22.75
2022-08-26T21:05:22.766Z,22.09
2022-08-26T21:07:49.414Z,21.73
2022-08-26T21:10:16.152Z,22.25
2022-08-26T21:12:43.877Z,22.83
2022-08-26T21:15:10.788Z,22.96
2022-08-26T21:17:37.419Z,23.35
2022-08-26T21:20:04.624Z,23.19
2022-08-26T21:22:31.267Z,23.30
2022-08-26T21:24:57.887Z,23.42
2022-08-26T21:27:26.451Z,23.26
2022-08-26T21:29:54.600Z,23.47
2022-08-26T21:32:21.256Z,23.84
2022-08-26T21:34:47.941Z,23.67
2022-08-26T21:37:16.890Z,23.26
2022-08-26T21:39:43.974Z,23.35
2022-08-26T21:42:10.625Z,23.27
2022-08-26T21:44:37.385Z,23.73
2022-08-26T21:47:04.174Z,23.98
2022-08-26T21:49:31.220Z,23.49
2022-08-26T21:51:57.840Z,23.55
2022-08-26T21:54:24.448Z,23.81
2022-08-26T21:56:51.360Z,23.94
2022-08-26T21:59:19.006Z,23.90
2022-08-26T22:01:46.359Z,23.95
2022-08-26T22:04:15.776Z,23.93
2022-08-26T22:06:46.431Z,23.82
2022-08-26T22:09:15.637Z,23.78
2022-08-26T22:11:42.764Z,23.77
2022-08-26T22:14:09.846Z,23.53
2022-08-26T22:16:37.221Z,23.39
2022-08-26T22:19:03.902Z,23.51
2022-08-26T22:21:30.594Z,23.35
2022-08-26T22:23:58.202Z,23.04
2022-08-26T22:26:27.986Z,22.81
2022-08-26T22:28:58.566Z,22.93
2022-08-26T22:31:35.270Z,22.81
2022-08-26T22:34:06.502Z,23.02
2022-08-26T22:36:33.142Z,22.29
2022-08-26T22:39:01.022Z,22.66
2022-08-26T22:41:27.731Z,21.69
2022-08-26T22:43:55.255Z,22.15
2022-08-26T22:46:27.286Z,22.56
2022-08-26T22:48:54.670Z,21.62
2022-08-26T22:51:22.042Z,22.04
2022-08-26T22:53:49.168Z,22.51
2022-08-26T22:56:16.464Z,22.34
2022-08-26T22:58:43.083Z,22.10
2022-08-26T23:01:09.918Z,21.65
2022-08-26T23:03:40.535Z,22.04
2022-08-26T23:06:09.347Z,21.56
2022-08-26T23:08:36.589Z,22.09
2022-08-26T23:11:08.856Z,22.61
2022-08-26T23:13:35.702Z,22.50
2022-08-26T23:16:07.083Z,22.16
2022-08-26T23:18:33.843Z,21.46
2022-08-26T23:21:00.910Z,21.39
2022-08-26T23:23:27.709Z,21.18
2022-08-26T23:25:55.483Z,20.58
2022-08-26T23:28:23.402Z,20.24
2022-08-26T23:30:50.371Z,20.20
2022-08-26T23:33:17.089Z,20.16
2022-08-26T23:35:44.281Z,20.01
2022-08-26T23:38:11.783Z,20.01
2022-08-26T23:40:41.650Z,19.92
2022-08-26T23:43:10.136Z,19.91
2022-08-26T23:45:37.118Z,19.86
2022-08-26T23:48:06.174Z,20.03
2022-08-26T23:50:32.992Z,19.78
2022-08-26T23:52:59.693Z,19.75
2022-08-26T23:55:26.320Z,19.80
2022-08-26T23:57:52.978Z,19.79
